createdAt,value
2024-03-04T00:01:13.956Z,2.97
2024-03-04T00:03:41.253Z,1.60
2024-03-04T00:06:08.505Z,2.33
2024-03-04T00:08:35.658Z,2.90
2024-03-04T00:11:03.563Z,3.25
2024-03-04T00:13:32.814Z,2.38
2024-03-04T00:16:01.978Z,1.40
2024-03-04T00:18:29.182Z,2.42
2024-03-04T00:20:56.550Z,2.42
2024-03-04T00:23:23.976Z,1.80
2024-03-04T00:25:52.666Z,2.67
2024-03-04T00:28:20.027Z,2.08
2024-03-04T00:30:47.259Z,1.50
2024-03-04T00:33:14.883Z,3.72
2024-03-04T00:35:44.329Z,1.58
2024-03-04T00:38:12.203Z,1.67
2024-03-04T00:40:39.832Z,1.98
2024-03-04T00:43:07.429Z,2.42
2024-03-04T00:45:34.989Z,2.65
2024-03-04T00:48:02.406Z,3.25
2024-03-04T00:50:31.439Z,1.85
2024-03-04T00:52:59.894Z,2.80
2024-03-04T00:55:27.364Z,2.75
2024-03-04T00:57:54.553Z,1.45
2024-03-04T01:00:21.857Z,1.80
2024-03-04T01:02:49.008Z,2.25
2024-03-04T01:05:16.568Z,1.42
2024-03-04T01:07:44.152Z,2.05
2024-03-04T01:10:14.746Z,1.55
2024-03-04T01:12:42.107Z,1.65
2024-03-04T01:15:09.773Z,3.13
2024-03-04T01:17:37.659Z,1.77
2024-03-04T01:20:05.817Z,2.30
2024-03-04T01:22:33.188Z,3.58
2024-03-04T01:25:01.746Z,2.67
2024-03-04T01:27:28.903Z,1.80
2024-03-04T01:29:56.132Z,2.22
2024-03-04T01:32:25.415Z,2.13
2024-03-04T01:34:52.478Z,2.38
2024-03-04T01:37:19.467Z,2.03
2024-03-04T01:39:50.159Z,4.43
2024-03-04T01:42:18.454Z,3.07
2024-03-04T01:44:45.478Z,2.67
2024-03-04T01:47:18.987Z,2.25
2024-03-04T01:49:46.804Z,3.63
2024-03-04T01:52:16.030Z,4.70
2024-03-04T01:54:46.152Z,3.85
2024-03-04T01:57:16.894Z,2.65
2024-03-04T01:59:48.211Z,1.90
2024-03-04T02:02:17.334Z,3.08
2024-03-04T02:04:46.125Z,2.92
2024-03-04T02:07:15.524Z,2.70
2024-03-04T02:09:44.899Z,4.53
2024-03-04T02:12:12.112Z,3.28
2024-03-04T02:14:39.631Z,2.70
2024-03-04T02:17:08.966Z,2.97
2024-03-04T02:19:36.225Z,2.03
2024-03-04T02:22:08.073Z,2.45
2024-03-04T02:24:35.364Z,3.00
2024-03-04T02:27:02.748Z,1.90
2024-03-04T02:29:29.754Z,3.35
2024-03-04T02:31:58.030Z,2.30
2024-03-04T02:34:25.179Z,2.72
2024-03-04T02:36:52.849Z,2.17
2024-03-04T02:39:28.730Z,2.95
2024-03-04T02:41:56.105Z,1.95
2024-03-04T02:44:23.436Z,3.50
2024-03-04T02:46:53.093Z,2.85
2024-03-04T02:49:20.278Z,2.05
2024-03-04T02:51:47.549Z,2.45
2024-03-04T02:54:14.659Z,1.75
2024-03-04T02:56:41.757Z,1.73
2024-03-04T02:59:08.798Z,5.05
2024-03-04T03:01:36.009Z,1.35
2024-03-04T03:04:03.133Z,3.72
2024-03-04T03:06:30.154Z,4.70
2024-03-04T03:08:57.489Z,2.55
2024-03-04T03:11:24.721Z,2.50
2024-03-04T03:13:52.471Z,4.72
2024-03-04T03:16:23.521Z,2.38
2024-03-04T03:18:52.339Z,3.60
2024-03-04T03:21:20.006Z,3.28
2024-03-04T03:23:47.884Z,3.67
2024-03-04T03:26:15.827Z,2.33
2024-03-04T03:28:43.817Z,3.05
2024-03-04T03:31:11.884Z,1.40
2024-03-04T03:33:39.323Z,4.47
2024-03-04T03:36:07.812Z,2.40
2024-03-04T03:38:35.160Z,3.78
2024-03-04T03:41:04.502Z,2.20
2024-03-04T03:43:31.773Z,4.93
2024-03-04T03:45:59.535Z,1.83
2024-03-04T03:48:27.609Z,1.02
2024-03-04T03:50:55.000Z,2.42
2024-03-04T03:53:27.394Z,3.25
2024-03-04T03:55:54.516Z,1.05
2024-03-04T03:58:21.842Z,2.30
2024-03-04T04:00:49.206Z,2.92
2024-03-04T04:03:16.475Z,2.50
2024-03-04T04:05:44.033Z,3.38
2024-03-04T04:08:11.517Z,0.80
2024-03-04T04:10:38.730Z,1.33
2024-03-04T04:13:06.452Z,1.80
2024-03-04T04:15:33.761Z,3.08
2024-03-04T04:18:01.105Z,2.78
2024-03-04T04:20:28.989Z,3.40
2024-03-04T04:22:56.482Z,1.65
2024-03-04T04:25:23.813Z,1.85
2024-03-04T04:27:51.877Z,1.25
2024-03-04T04:30:19.232Z,3.22
2024-03-04T04:32:47.720Z,3.30
2024-03-04T04:35:15.358Z,3.17
2024-03-04T04:37:44.273Z,1.95
2024-03-04T04:40:23.097Z,1.85
2024-03-04T04:42:50.228Z,2.22
2024-03-04T04:45:18.908Z,4.55
2024-03-04T04:47:46.896Z,4.70
2024-03-04T04:50:14.219Z,2.60
2024-03-04T04:52:43.050Z,2.17
2024-03-04T04:55:11.330Z,4.15
2024-03-04T04:57:39.579Z,4.22
2024-03-04T05:00:08.460Z,2.15
2024-03-04T05:02:36.447Z,5.47
2024-03-04T05:05:04.130Z,3.10
2024-03-04T05:07:31.354Z,5.55
2024-03-04T05:09:59.353Z,2.42
2024-03-04T05:12:26.864Z,5.05
2024-03-04T05:14:54.105Z,6.38
2024-03-04T05:17:21.955Z,4.28
2024-03-04T05:19:49.432Z,4.90
2024-03-04T05:22:17.454Z,3.13
2024-03-04T05:24:45.953Z,3.72
2024-03-04T05:27:13.406Z,4.28
2024-03-04T05:29:41.014Z,6.07
2024-03-04T05:32:09.064Z,7.68
2024-03-04T05:34:36.220Z,4.90
2024-03-04T05:37:03.511Z,6.00
2024-03-04T05:39:35.222Z,6.53
2024-03-04T05:44:29.287Z,7.18
2024-03-04T05:46:56.578Z,6.88
2024-03-04T05:49:24.530Z,5.63
2024-03-04T05:51:53.529Z,7.60
2024-03-04T05:54:20.785Z,7.72
2024-03-04T05:56:48.038Z,5.82
2024-03-04T05:59:15.383Z,10.57
2024-03-04T06:01:44.071Z,8.40
2024-03-04T06:04:12.786Z,12.48
2024-03-04T06:06:42.631Z,10.43
2024-03-04T06:09:10.088Z,8.07
2024-03-04T06:11:37.546Z,10.48
2024-03-04T06:14:04.798Z,11.05
2024-03-04T06:16:32.062Z,13.52
2024-03-04T06:18:59.261Z,10.43
2024-03-04T06:21:28.975Z,10.75
2024-03-04T06:23:56.157Z,12.05
2024-03-04T06:26:23.269Z,14.82
2024-03-04T06:28:50.694Z,14.02
2024-03-04T06:31:18.501Z,13.68
2024-03-04T06:33:52.751Z,12.75
2024-03-04T06:36:22.266Z,13.80
2024-03-04T06:38:50.490Z,12.63
2024-03-04T06:41:18.661Z,15.23
2024-03-04T06:43:46.394Z,18.63
2024-03-04T06:46:13.963Z,14.38
2024-03-04T06:48:41.315Z,17.17
2024-03-04T06:51:08.754Z,16.10
2024-03-04T06:53:35.933Z,16.23
2024-03-04T06:56:05.432Z,17.25
2024-03-04T06:58:32.691Z,14.57
2024-03-04T07:01:00.032Z,17.30
2024-03-04T07:03:27.272Z,15.25
2024-03-04T07:05:54.640Z,15.95
2024-03-04T07:08:22.213Z,17.02
2024-03-04T07:10:49.893Z,17.77
2024-03-04T07:13:17.107Z,19.67
2024-03-04T07:15:44.469Z,18.15
2024-03-04T07:18:12.975Z,21.58
2024-03-04T07:20:40.603Z,22.20
2024-03-04T07:23:09.653Z,18.02
2024-03-04T07:25:36.924Z,19.08
2024-03-04T07:28:05.467Z,18.98
2024-03-04T07:30:32.773Z,18.65
2024-03-04T07:33:00.595Z,21.58
2024-03-04T07:35:29.756Z,19.05
2024-03-04T07:37:56.997Z,18.85
2024-03-04T07:40:25.481Z,24.27
2024-03-04T07:42:53.032Z,19.48
2024-03-04T07:45:20.502Z,20.73
2024-03-04T07:47:47.768Z,18.50
2024-03-04T07:50:15.198Z,25.77
2024-03-04T07:52:44.165Z,21.60
2024-03-04T07:55:13.674Z,21.15
2024-03-04T07:57:46.794Z,21.50
2024-03-04T08:00:14.844Z,23.63
2024-03-04T08:02:43.533Z,24.08
2024-03-04T08:05:11.606Z,23.50
2024-03-04T08:07:39.968Z,22.33
2024-03-04T08:10:09.848Z,23.52
2024-03-04T08:12:37.349Z,21.13
2024-03-04T08:15:05.137Z,24.33
2024-03-04T08:17:34.192Z,23.17
2024-03-04T08:20:11.614Z,22.55
2024-03-04T08:22:44.480Z,22.88
2024-03-04T08:25:11.885Z,22.10
2024-03-04T08:27:40.514Z,24.60
2024-03-04T08:30:08.376Z,24.05
2024-03-04T08:32:36.251Z,24.05
2024-03-04T08:35:05.028Z,26.88
2024-03-04T08:37:32.548Z,27.73
2024-03-04T08:40:04.181Z,25.15
2024-03-04T08:45:00.387Z,24.42
2024-03-04T08:47:27.461Z,22.92
2024-03-04T08:49:55.497Z,22.90
2024-03-04T08:52:22.562Z,22.15
2024-03-04T08:54:50.932Z,25.30
2024-03-04T08:57:17.996Z,23.85
2024-03-04T08:59:45.239Z,24.92
2024-03-04T09:02:12.512Z,26.98
2024-03-04T09:04:39.623Z,30.02
2024-03-04T09:07:06.889Z,22.80
2024-03-04T09:09:35.982Z,24.27
2024-03-04T09:12:05.139Z,30.58
2024-03-04T09:14:32.529Z,25.17
2024-03-04T09:16:59.979Z,28.80
2024-03-04T09:19:28.078Z,24.75
2024-03-04T09:21:56.226Z,29.88
2024-03-04T09:24:23.572Z,24.58
2024-03-04T09:26:50.741Z,26.10
2024-03-04T09:29:17.984Z,24.02
2024-03-04T09:31:45.695Z,25.65
2024-03-04T09:34:13.302Z,26.67
2024-03-04T09:36:40.448Z,31.08
2024-03-04T09:39:12.021Z,25.02
2024-03-04T09:41:42.130Z,28.88
2024-03-04T09:44:09.673Z,30.25
2024-03-04T09:46:39.294Z,31.75
2024-03-04T09:49:09.477Z,29.17
2024-03-04T09:51:38.924Z,27.77
2024-03-04T09:54:07.388Z,28.08
2024-03-04T09:56:34.658Z,23.42
2024-03-04T09:59:02.861Z,27.42
2024-03-04T10:01:31.150Z,25.30
2024-03-04T10:04:00.193Z,25.13
2024-03-04T10:06:28.044Z,26.83
2024-03-04T10:08:55.434Z,23.77
2024-03-04T10:11:22.646Z,24.30
2024-03-04T10:13:51.703Z,26.23
2024-03-04T10:16:21.782Z,25.15
2024-03-04T10:19:02.722Z,26.08
2024-03-04T10:21:34.080Z,29.27
2024-03-04T10:24:09.285Z,29.57
2024-03-04T10:26:43.805Z,27.85
2024-03-04T10:29:13.781Z,26.52
2024-03-04T10:31:54.360Z,26.58
2024-03-04T10:34:22.444Z,25.20
2024-03-04T10:36:51.141Z,30.83
2024-03-04T10:39:18.654Z,28.95
2024-03-04T10:41:48.920Z,33.13
2024-03-04T10:44:28.611Z,33.70
2024-03-04T10:46:59.623Z,25.35
2024-03-04T10:49:30.593Z,27.05
2024-03-04T10:52:07.664Z,25.17
2024-03-04T10:54:44.521Z,28.05
2024-03-04T10:57:27.847Z,24.98
2024-03-04T10:59:58.050Z,27.85
2024-03-04T11:03:01.261Z,25.67
2024-03-04T11:05:33.207Z,25.95
2024-03-04T11:08:08.851Z,28.48
2024-03-04T11:10:43.125Z,25.33
2024-03-04T11:13:40.699Z,26.75
2024-03-04T11:16:56.447Z,25.35
2024-03-04T11:19:38.813Z,23.63
2024-03-04T11:22:07.780Z,27.77
2024-03-04T11:24:39.630Z,21.27
2024-03-04T11:27:07.993Z,27.52
2024-03-04T11:29:36.984Z,26.40
2024-03-04T11:32:10.224Z,28.05
2024-03-04T11:34:56.902Z,26.17
2024-03-04T11:37:31.933Z,22.83
2024-03-04T11:40:04.195Z,27.02
2024-03-04T11:42:40.029Z,25.40
2024-03-04T11:45:15.640Z,24.38
2024-03-04T11:47:42.698Z,28.73
2024-03-04T11:50:42.483Z,26.88
2024-03-04T11:53:27.539Z,26.15
2024-03-04T11:55:55.919Z,23.02
2024-03-04T11:58:24.511Z,23.73
2024-03-04T12:00:58.626Z,21.83
2024-03-04T12:03:32.302Z,25.65
2024-03-04T12:06:00.775Z,23.35
2024-03-04T12:08:44.824Z,25.33
2024-03-04T12:11:17.435Z,25.00
2024-03-04T12:13:45.323Z,28.70
2024-03-04T12:16:14.831Z,22.55
2024-03-04T12:18:43.377Z,26.85
2024-03-04T12:21:11.310Z,26.90
2024-03-04T12:23:38.361Z,23.73
2024-03-04T12:26:16.029Z,23.13
2024-03-04T12:28:43.351Z,21.42
2024-03-04T12:31:14.245Z,26.88
2024-03-04T12:33:42.431Z,23.52
2024-03-04T12:36:10.716Z,25.08
2024-03-04T12:38:38.876Z,25.30
2024-03-04T12:41:17.124Z,20.52
2024-03-04T12:43:44.879Z,23.15
2024-03-04T12:46:12.148Z,19.67
2024-03-04T12:48:40.387Z,18.13
2024-03-04T12:51:07.736Z,20.83
2024-03-04T12:53:36.401Z,19.15
2024-03-04T12:56:05.767Z,19.42
2024-03-04T12:58:33.128Z,19.60
2024-03-04T13:01:10.610Z,19.27
2024-03-04T13:03:37.902Z,18.45
2024-03-04T13:06:05.913Z,24.00
2024-03-04T13:08:33.164Z,21.33
2024-03-04T13:11:05.593Z,20.48
2024-03-04T13:13:32.655Z,18.90
2024-03-04T13:16:02.757Z,20.05
2024-03-04T13:18:32.713Z,17.35
2024-03-04T13:21:02.811Z,19.40
2024-03-04T13:23:30.156Z,19.52
2024-03-04T13:25:57.764Z,21.33
2024-03-04T13:28:24.980Z,20.95
2024-03-04T13:30:52.400Z,20.30
2024-03-04T13:33:19.919Z,20.95
2024-03-04T13:35:48.743Z,17.77
2024-03-04T13:38:16.222Z,18.45
2024-03-04T13:40:43.406Z,16.95
2024-03-04T13:43:15.995Z,19.40
2024-03-04T13:45:47.188Z,19.38
2024-03-04T13:48:14.485Z,19.73
2024-03-04T13:50:46.705Z,25.70
2024-03-04T13:53:13.970Z,21.85
2024-03-04T13:55:41.971Z,20.30
2024-03-04T13:58:09.169Z,19.38
2024-03-04T14:00:37.815Z,22.23
2024-03-04T14:03:05.869Z,17.95
2024-03-04T14:05:34.513Z,18.25
2024-03-04T14:08:03.567Z,18.95
2024-03-04T14:10:31.461Z,24.23
2024-03-04T14:13:00.682Z,18.50
2024-03-04T14:15:27.830Z,15.80
2024-03-04T14:17:55.340Z,19.77
2024-03-04T14:20:26.075Z,23.02
2024-03-04T14:22:53.199Z,20.00
2024-03-04T14:25:21.090Z,23.50
2024-03-04T14:27:48.640Z,21.05
2024-03-04T14:30:15.870Z,17.77
2024-03-04T14:32:43.832Z,21.65
2024-03-04T14:35:11.061Z,20.95
2024-03-04T14:37:38.859Z,18.23
2024-03-04T14:40:07.036Z,19.25
2024-03-04T14:42:34.595Z,20.73
2024-03-04T14:45:01.822Z,22.20
2024-03-04T14:47:33.263Z,20.60
2024-03-04T14:50:02.216Z,17.63
2024-03-04T14:52:29.556Z,21.65
2024-03-04T14:54:59.714Z,18.88
2024-03-04T14:57:27.069Z,19.77
2024-03-04T14:59:57.486Z,19.45
2024-03-04T15:02:25.972Z,19.50
2024-03-04T15:04:53.228Z,18.80
2024-03-04T15:07:21.002Z,21.02
2024-03-04T15:09:48.143Z,20.52
2024-03-04T15:12:15.390Z,19.23
2024-03-04T15:14:44.395Z,19.10
2024-03-04T15:17:12.574Z,18.65
2024-03-04T15:19:39.869Z,17.55
2024-03-04T15:22:08.222Z,21.77
2024-03-04T15:24:37.077Z,18.92
2024-03-04T15:27:06.375Z,18.27
2024-03-04T15:29:33.536Z,15.57
2024-03-04T15:32:03.377Z,22.17
2024-03-04T15:34:30.729Z,19.02
2024-03-04T15:36:58.640Z,23.13
2024-03-04T15:39:26.210Z,17.50
2024-03-04T15:41:54.490Z,14.25
2024-03-04T15:44:21.738Z,17.80
2024-03-04T15:46:50.388Z,17.00
2024-03-04T15:49:19.037Z,17.08
2024-03-04T15:51:49.389Z,15.05
2024-03-04T15:54:17.494Z,18.23
2024-03-04T15:56:45.117Z,17.30
2024-03-04T15:59:13.591Z,17.67
2024-03-04T16:01:41.387Z,17.63
2024-03-04T16:04:09.216Z,17.50
2024-03-04T16:06:36.284Z,18.92
2024-03-04T16:09:16.293Z,17.40
2024-03-04T16:11:45.883Z,17.50
2024-03-04T16:14:12.913Z,18.02
2024-03-04T16:16:40.226Z,17.38
2024-03-04T16:19:07.267Z,19.17
2024-03-04T16:21:34.719Z,18.05
2024-03-04T16:24:01.993Z,16.95
2024-03-04T16:26:29.085Z,16.08
2024-03-04T16:28:56.051Z,18.50
2024-03-04T16:31:23.075Z,18.55
2024-03-04T16:33:50.414Z,17.42
2024-03-04T16:36:17.670Z,17.85
2024-03-04T16:38:45.004Z,19.60
2024-03-04T16:41:24.777Z,19.13
2024-03-04T16:43:52.089Z,21.40
2024-03-04T16:46:19.775Z,22.85
2024-03-04T16:48:48.513Z,19.90
2024-03-04T16:51:16.772Z,17.52
2024-03-04T16:53:44.187Z,20.15
2024-03-04T16:56:11.528Z,20.02
2024-03-04T16:58:38.850Z,21.38
2024-03-04T17:01:09.276Z,19.10
2024-03-04T17:03:38.144Z,18.67
2024-03-04T17:06:05.481Z,18.00
2024-03-04T17:08:32.922Z,21.20
2024-03-04T17:11:04.665Z,19.58
2024-03-04T17:13:31.823Z,18.08
2024-03-04T17:15:59.166Z,18.50
2024-03-04T17:18:26.625Z,18.42
2024-03-04T17:20:54.008Z,21.58
2024-03-04T17:23:21.437Z,18.70
2024-03-04T17:25:49.273Z,21.25
2024-03-04T17:28:18.510Z,18.77
2024-03-04T17:30:45.773Z,20.98
2024-03-04T17:33:14.595Z,19.17
2024-03-04T17:35:42.307Z,18.77
2024-03-04T17:38:09.557Z,21.42
2024-03-04T17:40:37.313Z,17.73
2024-03-04T17:43:04.685Z,19.10
2024-03-04T17:45:31.734Z,20.20
2024-03-04T17:47:58.681Z,21.70
2024-03-04T17:50:29.939Z,20.88
2024-03-04T17:52:56.988Z,22.63
2024-03-04T17:55:25.371Z,22.55
2024-03-04T17:57:52.920Z,22.40
2024-03-04T18:00:21.382Z,20.08
2024-03-04T18:02:50.071Z,19.33
2024-03-04T18:05:17.676Z,16.95
2024-03-04T18:07:45.062Z,21.58
2024-03-04T18:10:12.485Z,20.75
2024-03-04T18:12:42.744Z,20.35
2024-03-04T18:15:10.027Z,20.33
2024-03-04T18:17:37.346Z,19.40
2024-03-04T18:20:04.888Z,20.25
2024-03-04T18:22:31.875Z,21.33
2024-03-04T18:24:58.920Z,19.23
2024-03-04T18:27:27.286Z,19.10
2024-03-04T18:29:54.404Z,20.38
2024-03-04T18:32:21.596Z,20.58
2024-03-04T18:34:48.967Z,20.83
2024-03-04T18:37:16.156Z,21.45
2024-03-04T18:39:43.262Z,21.08
2024-03-04T18:42:10.860Z,20.90
2024-03-04T18:44:38.077Z,22.25
2024-03-04T18:47:05.136Z,22.13
2024-03-04T18:49:32.647Z,22.58
2024-03-04T18:51:59.685Z,20.50
2024-03-04T18:54:26.971Z,22.52
2024-03-04T18:56:55.483Z,21.40
2024-03-04T18:59:22.671Z,23.45
2024-03-04T19:01:49.800Z,25.15
2024-03-04T19:04:17.817Z,24.67
2024-03-04T19:06:45.261Z,25.58
2024-03-04T19:09:12.568Z,24.80
2024-03-04T19:11:39.636Z,26.33
2024-03-04T19:14:06.727Z,28.58
2024-03-04T19:16:33.850Z,27.92
2024-03-04T19:19:01.118Z,25.50
2024-03-04T19:21:28.962Z,23.17
2024-03-04T19:23:56.004Z,25.92
2024-03-04T19:26:23.307Z,25.08
2024-03-04T19:28:51.537Z,24.77
2024-03-04T19:31:23.392Z,24.77
2024-03-04T19:33:54.232Z,26.63
2024-03-04T19:36:22.707Z,25.80
2024-03-04T19:38:50.076Z,28.10
2024-03-04T19:41:18.695Z,29.23
2024-03-04T19:43:47.073Z,26.17
2024-03-04T19:46:21.536Z,26.10
2024-03-04T19:48:52.283Z,32.45
2024-03-04T19:51:24.305Z,30.10
2024-03-04T19:53:55.118Z,30.02
2024-03-04T19:56:22.817Z,33.35
2024-03-04T19:58:50.143Z,34.05
2024-03-04T20:01:17.885Z,28.48
2024-03-04T20:03:45.349Z,33.03
2024-03-04T20:06:12.904Z,34.63
2024-03-04T20:08:42.142Z,29.73
2024-03-04T20:11:13.611Z,33.92
2024-03-04T20:13:45.972Z,30.58
2024-03-04T20:16:16.980Z,32.47
2024-03-04T20:18:44.511Z,36.50
2024-03-04T20:21:12.839Z,32.42
2024-03-04T20:23:42.457Z,30.98
2024-03-04T20:26:09.993Z,33.55
2024-03-04T20:28:38.893Z,33.88
2024-03-04T20:31:06.889Z,33.22
2024-03-04T20:33:35.953Z,31.70
2024-03-04T20:36:05.726Z,34.78
2024-03-04T20:38:35.327Z,32.75
2024-03-04T20:41:03.144Z,33.70
2024-03-04T20:43:30.332Z,37.72
2024-03-04T20:45:57.967Z,38.10
2024-03-04T20:48:29.146Z,37.13
2024-03-04T20:50:57.295Z,37.47
2024-03-04T20:53:24.786Z,36.08
2024-03-04T20:55:52.073Z,37.88
2024-03-04T20:58:23.221Z,40.00
2024-03-04T21:00:50.824Z,37.45
2024-03-04T21:03:18.106Z,32.63
2024-03-04T21:05:46.482Z,38.00
2024-03-04T21:08:13.737Z,41.15
2024-03-04T21:10:41.700Z,36.10
2024-03-04T21:13:09.825Z,36.13
2024-03-04T21:15:37.236Z,35.10
2024-03-04T21:18:04.601Z,40.20
2024-03-04T21:20:31.740Z,35.80
2024-03-04T21:23:04.237Z,42.53
2024-03-04T21:25:31.501Z,43.13
2024-03-04T21:27:58.884Z,41.83
2024-03-04T21:30:27.777Z,42.75
2024-03-04T21:32:55.259Z,40.85
2024-03-04T21:35:24.869Z,43.85
2024-03-04T21:37:52.019Z,39.50
2024-03-04T21:40:19.865Z,41.25
2024-03-04T21:42:46.998Z,46.75
2024-03-04T21:45:14.172Z,42.03
2024-03-04T21:47:44.039Z,43.15
2024-03-04T21:50:17.974Z,44.10
2024-03-04T21:52:45.398Z,44.70
2024-03-04T21:55:14.544Z,50.92
2024-03-04T21:57:42.586Z,41.97
2024-03-04T22:00:16.181Z,45.05
2024-03-04T22:02:44.669Z,48.95
2024-03-04T22:05:12.752Z,44.70
2024-03-04T22:07:41.322Z,43.45
2024-03-04T22:10:12.738Z,48.67
2024-03-04T22:12:40.855Z,34.65
2024-03-04T22:15:09.831Z,51.55
2024-03-04T22:17:37.285Z,49.45
2024-03-04T22:20:08.120Z,45.15
2024-03-04T22:22:36.178Z,44.47
2024-03-04T22:25:05.494Z,43.05
2024-03-04T22:27:32.522Z,47.20
2024-03-04T22:29:59.835Z,49.50
2024-03-04T22:32:28.669Z,43.20
2024-03-04T22:34:56.105Z,43.53
2024-03-04T22:37:23.903Z,46.58
2024-03-04T22:39:51.075Z,46.97
2024-03-04T22:42:20.221Z,49.80
2024-03-04T22:44:47.479Z,48.83
2024-03-04T22:47:14.731Z,43.53
2024-03-04T22:49:41.981Z,48.97
2024-03-04T22:52:10.285Z,47.33
2024-03-04T22:54:37.350Z,46.70
2024-03-04T22:57:04.593Z,52.60
2024-03-04T22:59:31.641Z,46.50
2024-03-04T23:01:58.996Z,48.58
2024-03-04T23:04:26.291Z,47.45
2024-03-04T23:06:53.673Z,51.70
2024-03-04T23:09:28.189Z,53.70
2024-03-04T23:11:55.291Z,48.92
2024-03-04T23:14:22.753Z,43.70
2024-03-04T23:16:49.886Z,48.45
2024-03-04T23:19:18.385Z,51.70
2024-03-04T23:21:48.275Z,49.70
2024-03-04T23:24:16.041Z,47.40
2024-03-04T23:26:45.824Z,46.97
2024-03-04T23:29:12.995Z,44.72
2024-03-04T23:31:40.339Z,49.88
2024-03-04T23:34:11.818Z,51.88
2024-03-04T23:36:39.163Z,46.08
2024-03-04T23:39:07.119Z,47.67
2024-03-04T23:41:34.588Z,43.58
2024-03-04T23:44:02.013Z,46.60
2024-03-04T23:46:29.254Z,45.85
2024-03-04T23:48:56.431Z,45.63
2024-03-04T23:51:23.575Z,50.33
2024-03-04T23:53:50.793Z,48.13
2024-03-04T23:56:17.804Z,46.45
2024-03-04T23:58:45.020Z,39.50
